sensor_id;sensor_type;location;lat;lon;timestamp;temperature;humidity
2022;DHT22;1015;49.756;6.994;2022-09-03T00:00:00;16.10;99.90
2022;DHT22;1015;49.756;6.994;2022-09-03T00:02:37;16.20;99.90
2022;DHT22;1015;49.756;6.994;2022-09-03T00:05:08;15.90;99.90
2022;DHT22;1015;49.756;6.994;2022-09-03T00:07:41;16.10;99.90
2022;DHT22;1015;49.756;6.994;2022-09-03T00:10:13;16.10;99.90
2022;DHT22;1015;49.756;6.994;2022-09-03T00:12:43;16.00;99.90
2022;DHT22;1015;49.756;6.994;2022-09-03T00:15:13;16.00;99.90
2022;DHT22;1015;49.756;6.994;2022-09-03T00:17:45;16.10;99.90
2022;DHT22;1015;49.756;6.994;2022-09-03T00:20:18;16.20;99.90
2022;DHT22;1015;49.756;6.994;2022-09-03T00:22:48;16.20;99.90
2022;DHT22;1015;49.756;6.994;2022-09-03T00:25:21;16.10;99.90
2022;DHT22;1015;49.756;6.994;2022-09-03T00:27:53;16.10;99.90
2022;DHT22;1015;49.756;6.994;2022-09-03T00:30:21;16.20;99.90
2022;DHT22;1015;49.756;6.994;2022-09-03T00:32:53;16.20;99.90
2022;DHT22;1015;49.756;6.994;2022-09-03T00:35:26;16.30;99.90
2022;DHT22;1015;49.756;6.994;2022-09-03T00:37:54;16.40;99.90
2022;DHT22;1015;49.756;6.994;2022-09-03T00:40:35;16.30;99.90
2022;DHT22;1015;49.756;6.994;2022-09-03T00:43:09;16.30;99.90
2022;DHT22;1015;49.756;6.994;2022-09-03T00:45:47;16.30;99.90
2022;DHT22;1015;49.756;6.994;2022-09-03T00:48:21;16.40;99.90
2022;DHT22;1015;49.756;6.994;2022-09-03T00:51:03;16.30;99.90
2022;DHT22;1015;49.756;6.994;2022-09-03T00:53:38;16.30;99.90
2022;DHT22;1015;49.756;6.994;2022-09-03T00:56:12;16.20;99.90
2022;DHT22;1015;49.756;6.994;2022-09-03T00:58:51;16.40;99.90
2022;DHT22;1015;49.756;6.994;2022-09-03T01:01:25;16.50;99.90
2022;DHT22;1015;49.756;6.994;2022-09-03T01:04:00;16.60;99.90
2022;DHT22;1015;49.756;6.994;2022-09-03T01:06:37;16.70;99.90
2022;DHT22;1015;49.756;6.994;2022-09-03T01:09:16;16.70;99.90
2022;DHT22;1015;49.756;6.994;2022-09-03T01:11:56;16.70;99.90
2022;DHT22;1015;49.756;6.994;2022-09-03T01:14:35;16.60;99.90
2022;DHT22;1015;49.756;6.994;2022-09-03T01:17:12;16.60;99.90
2022;DHT22;1015;49.756;6.994;2022-09-03T01:20:01;16.70;99.90
2022;DHT22;1015;49.756;6.994;2022-09-03T01:22:56;16.70;99.90
2022;DHT22;1015;49.756;6.994;2022-09-03T01:25:37;16.70;99.90
2022;DHT22;1015;49.756;6.994;2022-09-03T01:28:24;16.70;99.90
2022;DHT22;1015;49.756;6.994;2022-09-03T01:31:01;16.70;99.90
2022;DHT22;1015;49.756;6.994;2022-09-03T01:33:40;16.60;99.90
2022;DHT22;1015;49.756;6.994;2022-09-03T01:36:13;16.50;99.90
2022;DHT22;1015;49.756;6.994;2022-09-03T01:38:48;16.30;99.90
2022;DHT22;1015;49.756;6.994;2022-09-03T01:41:23;16.30;99.90
2022;DHT22;1015;49.756;6.994;2022-09-03T01:44:21;16.20;99.90
2022;DHT22;1015;49.756;6.994;2022-09-03T01:46:57;16.20;99.90
2022;DHT22;1015;49.756;6.994;2022-09-03T01:49:35;16.20;99.90
2022;DHT22;1015;49.756;6.994;2022-09-03T01:52:12;16.20;99.90
2022;DHT22;1015;49.756;6.994;2022-09-03T01:54:50;16.10;99.90
2022;DHT22;1015;49.756;6.994;2022-09-03T01:57:41;16.10;99.90
2022;DHT22;1015;49.756;6.994;2022-09-03T02:00:14;16.20;99.90
2022;DHT22;1015;49.756;6.994;2022-09-03T02:02:46;16.30;99.90
2022;DHT22;1015;49.756;6.994;2022-09-03T02:05:16;16.20;99.90
2022;DHT22;1015;49.756;6.994;2022-09-03T02:07:44;16.30;99.90
2022;DHT22;1015;49.756;6.994;2022-09-03T02:10:15;16.30;99.90
2022;DHT22;1015;49.756;6.994;2022-09-03T02:12:46;16.20;99.90
2022;DHT22;1015;49.756;6.994;2022-09-03T02:15:18;16.20;99.90
2022;DHT22;1015;49.756;6.994;2022-09-03T02:17:46;16.10;99.90
2022;DHT22;1015;49.756;6.994;2022-09-03T02:20:18;16.20;99.90
2022;DHT22;1015;49.756;6.994;2022-09-03T02:22:46;16.20;99.90
2022;DHT22;1015;49.756;6.994;2022-09-03T02:25:14;15.90;99.90
2022;DHT22;1015;49.756;6.994;2022-09-03T02:27:42;15.80;99.90
2022;DHT22;1015;49.756;6.994;2022-09-03T02:30:10;15.80;99.90
2022;DHT22;1015;49.756;6.994;2022-09-03T02:32:38;15.80;99.90
2022;DHT22;1015;49.756;6.994;2022-09-03T02:35:06;15.70;99.90
2022;DHT22;1015;49.756;6.994;2022-09-03T02:37:33;15.70;99.90
2022;DHT22;1015;49.756;6.994;2022-09-03T02:40:00;15.80;99.90
2022;DHT22;1015;49.756;6.994;2022-09-03T02:42:31;15.80;99.90
2022;DHT22;1015;49.756;6.994;2022-09-03T02:47:48;15.80;99.90
2022;DHT22;1015;49.756;6.994;2022-09-03T02:50:17;15.80;99.90
2022;DHT22;1015;49.756;6.994;2022-09-03T02:52:44;15.80;99.90
2022;DHT22;1015;49.756;6.994;2022-09-03T02:55:10;15.80;99.90
2022;DHT22;1015;49.756;6.994;2022-09-03T02:57:37;15.80;99.90
2022;DHT22;1015;49.756;6.994;2022-09-03T03:00:05;15.80;99.90
2022;DHT22;1015;49.756;6.994;2022-09-03T03:02:32;15.80;99.90
2022;DHT22;1015;49.756;6.994;2022-09-03T03:05:01;15.80;99.90
2022;DHT22;1015;49.756;6.994;2022-09-03T03:07:31;15.80;99.90
2022;DHT22;1015;49.756;6.994;2022-09-03T03:10:00;15.90;99.90
2022;DHT22;1015;49.756;6.994;2022-09-03T03:12:27;15.90;99.90
2022;DHT22;1015;49.756;6.994;2022-09-03T03:14:55;16.00;99.90
2022;DHT22;1015;49.756;6.994;2022-09-03T03:17:22;16.00;99.90
2022;DHT22;1015;49.756;6.994;2022-09-03T03:19:50;15.90;99.90
2022;DHT22;1015;49.756;6.994;2022-09-03T03:22:18;15.90;99.90
2022;DHT22;1015;49.756;6.994;2022-09-03T03:24:45;15.80;99.90
2022;DHT22;1015;49.756;6.994;2022-09-03T03:27:15;15.70;99.90
2022;DHT22;1015;49.756;6.994;2022-09-03T03:29:43;15.50;99.90
2022;DHT22;1015;49.756;6.994;2022-09-03T03:32:10;15.40;99.90
2022;DHT22;1015;49.756;6.994;2022-09-03T03:34:37;15.40;99.90
2022;DHT22;1015;49.756;6.994;2022-09-03T03:37:04;15.30;99.90
2022;DHT22;1015;49.756;6.994;2022-09-03T03:39:32;15.20;99.90
2022;DHT22;1015;49.756;6.994;2022-09-03T03:41:59;15.20;99.90
2022;DHT22;1015;49.756;6.994;2022-09-03T03:44:26;15.00;99.90
2022;DHT22;1015;49.756;6.994;2022-09-03T03:46:54;14.90;99.90
2022;DHT22;1015;49.756;6.994;2022-09-03T03:49:21;14.90;99.90
2022;DHT22;1015;49.756;6.994;2022-09-03T03:51:47;14.80;99.90
2022;DHT22;1015;49.756;6.994;2022-09-03T03:54:14;14.70;99.90
2022;DHT22;1015;49.756;6.994;2022-09-03T03:56:43;14.60;99.90
2022;DHT22;1015;49.756;6.994;2022-09-03T03:59:10;14.50;99.90
2022;DHT22;1015;49.756;6.994;2022-09-03T04:01:36;14.40;99.90
2022;DHT22;1015;49.756;6.994;2022-09-03T04:04:03;14.40;99.90
2022;DHT22;1015;49.756;6.994;2022-09-03T04:06:30;14.40;99.90
2022;DHT22;1015;49.756;6.994;2022-09-03T04:08:57;14.40;99.90
2022;DHT22;1015;49.756;6.994;2022-09-03T04:11:24;14.30;99.90
2022;DHT22;1015;49.756;6.994;2022-09-03T04:13:53;14.20;99.90
2022;DHT22;1015;49.756;6.994;2022-09-03T04:16:22;14.30;99.90
2022;DHT22;1015;49.756;6.994;2022-09-03T04:18:50;14.30;99.90
2022;DHT22;1015;49.756;6.994;2022-09-03T04:21:18;14.30;99.90
2022;DHT22;1015;49.756;6.994;2022-09-03T04:23:47;14.30;99.90
2022;DHT22;1015;49.756;6.994;2022-09-03T04:26:16;14.40;99.90
2022;DHT22;1015;49.756;6.994;2022-09-03T04:28:43;14.40;99.90
2022;DHT22;1015;49.756;6.994;2022-09-03T04:31:15;14.50;99.90
2022;DHT22;1015;49.756;6.994;2022-09-03T04:33:42;14.50;99.90
2022;DHT22;1015;49.756;6.994;2022-09-03T04:36:11;14.50;99.90
2022;DHT22;1015;49.756;6.994;2022-09-03T04:38:39;14.50;99.90
2022;DHT22;1015;49.756;6.994;2022-09-03T04:41:08;14.50;99.90
2022;DHT22;1015;49.756;6.994;2022-09-03T04:43:35;14.50;99.90
2022;DHT22;1015;49.756;6.994;2022-09-03T04:46:04;14.40;99.90
2022;DHT22;1015;49.756;6.994;2022-09-03T04:48:33;14.50;99.90
2022;DHT22;1015;49.756;6.994;2022-09-03T04:51:02;14.50;99.90
2022;DHT22;1015;49.756;6.994;2022-09-03T04:53:31;14.60;99.90
2022;DHT22;1015;49.756;6.994;2022-09-03T04:55:58;14.60;99.90
2022;DHT22;1015;49.756;6.994;2022-09-03T04:58:25;14.60;99.90
2022;DHT22;1015;49.756;6.994;2022-09-03T05:00:51;14.60;99.90
2022;DHT22;1015;49.756;6.994;2022-09-03T05:03:18;14.50;99.90
2022;DHT22;1015;49.756;6.994;2022-09-03T05:05:53;14.50;99.90
2022;DHT22;1015;49.756;6.994;2022-09-03T05:08:20;14.50;99.90
2022;DHT22;1015;49.756;6.994;2022-09-03T05:10:47;14.50;99.90
2022;DHT22;1015;49.756;6.994;2022-09-03T05:13:14;14.70;99.90
2022;DHT22;1015;49.756;6.994;2022-09-03T05:15:41;14.70;99.90
2022;DHT22;1015;49.756;6.994;2022-09-03T05:18:10;14.70;99.90
2022;DHT22;1015;49.756;6.994;2022-09-03T05:20:37;14.80;99.90
2022;DHT22;1015;49.756;6.994;2022-09-03T05:23:06;14.80;99.90
2022;DHT22;1015;49.756;6.994;2022-09-03T05:25:33;14.80;99.90
2022;DHT22;1015;49.756;6.994;2022-09-03T05:28:02;14.90;99.90
2022;DHT22;1015;49.756;6.994;2022-09-03T05:30:29;14.90;99.90
2022;DHT22;1015;49.756;6.994;2022-09-03T05:32:56;15.00;99.90
2022;DHT22;1015;49.756;6.994;2022-09-03T05:35:23;15.00;99.90
2022;DHT22;1015;49.756;6.994;2022-09-03T05:37:53;15.00;99.90
2022;DHT22;1015;49.756;6.994;2022-09-03T05:40:22;15.00;99.90
2022;DHT22;1015;49.756;6.994;2022-09-03T05:42:54;15.00;99.90
2022;DHT22;1015;49.756;6.994;2022-09-03T05:45:23;15.10;99.90
2022;DHT22;1015;49.756;6.994;2022-09-03T05:47:50;15.10;99.90
2022;DHT22;1015;49.756;6.994;2022-09-03T05:50:17;15.20;99.90
2022;DHT22;1015;49.756;6.994;2022-09-03T05:52:43;15.20;99.90
2022;DHT22;1015;49.756;6.994;2022-09-03T05:55:10;15.30;99.90
2022;DHT22;1015;49.756;6.994;2022-09-03T05:57:39;15.30;99.90
2022;DHT22;1015;49.756;6.994;2022-09-03T06:00:07;15.30;99.90
2022;DHT22;1015;49.756;6.994;2022-09-03T06:02:35;15.40;99.90
2022;DHT22;1015;49.756;6.994;2022-09-03T06:05:02;15.40;99.90
2022;DHT22;1015;49.756;6.994;2022-09-03T06:07:29;15.40;99.90
2022;DHT22;1015;49.756;6.994;2022-09-03T06:09:58;15.40;99.90
2022;DHT22;1015;49.756;6.994;2022-09-03T06:12:25;15.50;99.90
2022;DHT22;1015;49.756;6.994;2022-09-03T06:14:53;15.50;99.90
2022;DHT22;1015;49.756;6.994;2022-09-03T06:17:20;15.70;99.90
2022;DHT22;1015;49.756;6.994;2022-09-03T06:19:47;15.80;99.90
2022;DHT22;1015;49.756;6.994;2022-09-03T06:22:14;16.00;99.90
2022;DHT22;1015;49.756;6.994;2022-09-03T06:24:41;16.10;99.90
2022;DHT22;1015;49.756;6.994;2022-09-03T06:27:08;16.20;99.90
2022;DHT22;1015;49.756;6.994;2022-09-03T06:29:35;16.40;99.90
2022;DHT22;1015;49.756;6.994;2022-09-03T06:32:04;16.60;99.90
2022;DHT22;1015;49.756;6.994;2022-09-03T06:34:31;16.80;99.90
2022;DHT22;1015;49.756;6.994;2022-09-03T06:37:01;17.20;99.90
2022;DHT22;1015;49.756;6.994;2022-09-03T06:39:27;17.70;99.90
2022;DHT22;1015;49.756;6.994;2022-09-03T06:41:55;17.80;99.90
2022;DHT22;1015;49.756;6.994;2022-09-03T06:44:22;17.70;99.90
2022;DHT22;1015;49.756;6.994;2022-09-03T06:46:50;17.70;99.90
2022;DHT22;1015;49.756;6.994;2022-09-03T06:49:19;17.70;99.90
2022;DHT22;1015;49.756;6.994;2022-09-03T06:51:46;17.70;99.90
2022;DHT22;1015;49.756;6.994;2022-09-03T06:54:13;17.60;99.90
2022;DHT22;1015;49.756;6.994;2022-09-03T06:56:40;17.50;99.90
2022;DHT22;1015;49.756;6.994;2022-09-03T06:59:09;17.50;99.90
2022;DHT22;1015;49.756;6.994;2022-09-03T07:01:36;17.40;99.90
2022;DHT22;1015;49.756;6.994;2022-09-03T07:04:06;17.40;99.90
2022;DHT22;1015;49.756;6.994;2022-09-03T07:06:36;17.40;99.90
2022;DHT22;1015;49.756;6.994;2022-09-03T07:09:05;17.40;99.90
2022;DHT22;1015;49.756;6.994;2022-09-03T07:11:32;17.50;99.90
2022;DHT22;1015;49.756;6.994;2022-09-03T07:14:01;17.60;99.90
2022;DHT22;1015;49.756;6.994;2022-09-03T07:16:32;17.60;99.90
2022;DHT22;1015;49.756;6.994;2022-09-03T07:18:59;17.70;99.90
2022;DHT22;1015;49.756;6.994;2022-09-03T07:21:29;17.70;99.90
2022;DHT22;1015;49.756;6.994;2022-09-03T07:23:57;17.80;99.90
2022;DHT22;1015;49.756;6.994;2022-09-03T07:26:27;17.80;99.90
2022;DHT22;1015;49.756;6.994;2022-09-03T07:28:55;17.90;99.90
2022;DHT22;1015;49.756;6.994;2022-09-03T07:31:24;18.20;99.90
2022;DHT22;1015;49.756;6.994;2022-09-03T07:33:52;18.60;99.90
2022;DHT22;1015;49.756;6.994;2022-09-03T07:36:22;18.50;99.90
2022;DHT22;1015;49.756;6.994;2022-09-03T07:38:50;18.60;99.90
2022;DHT22;1015;49.756;6.994;2022-09-03T07:41:18;18.80;99.90
2022;DHT22;1015;49.756;6.994;2022-09-03T07:43:46;18.70;99.90
2022;DHT22;1015;49.756;6.994;2022-09-03T07:46:14;18.70;99.90
2022;DHT22;1015;49.756;6.994;2022-09-03T07:48:45;18.90;99.90
2022;DHT22;1015;49.756;6.994;2022-09-03T07:51:14;19.10;99.90
2022;DHT22;1015;49.756;6.994;2022-09-03T07:53:41;19.10;99.90
2022;DHT22;1015;49.756;6.994;2022-09-03T07:56:09;19.50;99.90
2022;DHT22;1015;49.756;6.994;2022-09-03T07:58:39;19.30;99.90
2022;DHT22;1015;49.756;6.994;2022-09-03T08:01:08;19.50;99.90
2022;DHT22;1015;49.756;6.994;2022-09-03T08:03:35;19.40;99.90
2022;DHT22;1015;49.756;6.994;2022-09-03T08:06:04;19.50;99.90
2022;DHT22;1015;49.756;6.994;2022-09-03T08:08:32;19.50;99.90
2022;DHT22;1015;49.756;6.994;2022-09-03T08:11:05;19.60;99.90
2022;DHT22;1015;49.756;6.994;2022-09-03T08:13:34;19.40;99.90
2022;DHT22;1015;49.756;6.994;2022-09-03T08:16:02;19.30;99.90
2022;DHT22;1015;49.756;6.994;2022-09-03T08:18:30;19.40;99.90
2022;DHT22;1015;49.756;6.994;2022-09-03T08:21:02;19.40;99.90
2022;DHT22;1015;49.756;6.994;2022-09-03T08:23:29;20.10;99.90
2022;DHT22;1015;49.756;6.994;2022-09-03T08:25:59;20.40;99.90
2022;DHT22;1015;49.756;6.994;2022-09-03T08:28:28;20.70;99.90
2022;DHT22;1015;49.756;6.994;2022-09-03T08:31:05;20.60;99.90
2022;DHT22;1015;49.756;6.994;2022-09-03T08:33:32;20.60;99.90
2022;DHT22;1015;49.756;6.994;2022-09-03T08:36:08;20.80;99.90
2022;DHT22;1015;49.756;6.994;2022-09-03T08:38:37;20.80;99.90
2022;DHT22;1015;49.756;6.994;2022-09-03T08:41:06;20.70;99.90
2022;DHT22;1015;49.756;6.994;2022-09-03T08:43:49;20.80;99.90
2022;DHT22;1015;49.756;6.994;2022-09-03T08:46:24;20.80;99.90
2022;DHT22;1015;49.756;6.994;2022-09-03T08:48:52;20.60;99.90
2022;DHT22;1015;49.756;6.994;2022-09-03T08:51:22;20.70;99.90
2022;DHT22;1015;49.756;6.994;2022-09-03T08:53:52;21.10;99.90
2022;DHT22;1015;49.756;6.994;2022-09-03T08:56:25;21.40;99.90
2022;DHT22;1015;49.756;6.994;2022-09-03T08:58:52;21.50;99.90
2022;DHT22;1015;49.756;6.994;2022-09-03T09:01:30;21.70;99.90
2022;DHT22;1015;49.756;6.994;2022-09-03T09:04:04;21.50;99.90
2022;DHT22;1015;49.756;6.994;2022-09-03T09:06:36;21.20;99.90
2022;DHT22;1015;49.756;6.994;2022-09-03T09:09:17;21.10;99.90
2022;DHT22;1015;49.756;6.994;2022-09-03T09:11:53;21.80;99.90
2022;DHT22;1015;49.756;6.994;2022-09-03T09:14:28;22.60;99.90
2022;DHT22;1015;49.756;6.994;2022-09-03T09:17:03;23.00;99.90
2022;DHT22;1015;49.756;6.994;2022-09-03T09:19:41;22.90;99.90
2022;DHT22;1015;49.756;6.994;2022-09-03T09:22:18;23.10;99.90
2022;DHT22;1015;49.756;6.994;2022-09-03T09:24:50;22.80;99.90
2022;DHT22;1015;49.756;6.994;2022-09-03T09:27:19;23.40;99.90
2022;DHT22;1015;49.756;6.994;2022-09-03T09:29:48;23.00;99.90
2022;DHT22;1015;49.756;6.994;2022-09-03T09:32:18;22.60;99.90
2022;DHT22;1015;49.756;6.994;2022-09-03T09:34:46;22.50;99.90
2022;DHT22;1015;49.756;6.994;2022-09-03T09:37:15;22.30;99.90
2022;DHT22;1015;49.756;6.994;2022-09-03T09:39:55;22.40;99.90
2022;DHT22;1015;49.756;6.994;2022-09-03T09:42:23;22.70;99.90
2022;DHT22;1015;49.756;6.994;2022-09-03T09:44:49;22.70;99.90
2022;DHT22;1015;49.756;6.994;2022-09-03T09:47:24;22.50;99.90
2022;DHT22;1015;49.756;6.994;2022-09-03T09:49:53;22.80;99.90
2022;DHT22;1015;49.756;6.994;2022-09-03T09:52:22;22.50;99.90
2022;DHT22;1015;49.756;6.994;2022-09-03T09:54:52;22.80;99.90
2022;DHT22;1015;49.756;6.994;2022-09-03T09:57:22;22.40;99.90
2022;DHT22;1015;49.756;6.994;2022-09-03T09:59:49;22.60;99.90
2022;DHT22;1015;49.756;6.994;2022-09-03T10:02:28;23.10;99.90
2022;DHT22;1015;49.756;6.994;2022-09-03T10:05:11;23.40;99.90
2022;DHT22;1015;49.756;6.994;2022-09-03T10:07:39;24.10;99.90
2022;DHT22;1015;49.756;6.994;2022-09-03T10:10:14;24.30;99.90
2022;DHT22;1015;49.756;6.994;2022-09-03T10:12:43;23.90;99.90
2022;DHT22;1015;49.756;6.994;2022-09-03T10:15:20;23.90;99.90
2022;DHT22;1015;49.756;6.994;2022-09-03T10:17:56;23.60;99.90
2022;DHT22;1015;49.756;6.994;2022-09-03T10:20:32;23.50;99.90
2022;DHT22;1015;49.756;6.994;2022-09-03T10:23:08;23.20;99.90
2022;DHT22;1015;49.756;6.994;2022-09-03T10:25:41;23.10;99.90
2022;DHT22;1015;49.756;6.994;2022-09-03T10:28:12;23.00;99.90
2022;DHT22;1015;49.756;6.994;2022-09-03T10:31:00;23.00;99.90
2022;DHT22;1015;49.756;6.994;2022-09-03T10:33:34;23.10;99.90
2022;DHT22;1015;49.756;6.994;2022-09-03T10:36:10;23.00;99.90
2022;DHT22;1015;49.756;6.994;2022-09-03T10:38:39;22.80;99.90
2022;DHT22;1015;49.756;6.994;2022-09-03T10:41:19;23.80;99.90
2022;DHT22;1015;49.756;6.994;2022-09-03T10:44:05;23.10;99.90
2022;DHT22;1015;49.756;6.994;2022-09-03T10:46:45;23.20;99.90
2022;DHT22;1015;49.756;6.994;2022-09-03T10:49:38;23.50;99.90
2022;DHT22;1015;49.756;6.994;2022-09-03T10:52:12;23.90;99.90
2022;DHT22;1015;49.756;6.994;2022-09-03T10:54:50;24.10;99.90
2022;DHT22;1015;49.756;6.994;2022-09-03T10:57:31;24.00;99.90
2022;DHT22;1015;49.756;6.994;2022-09-03T11:00:05;23.50;99.90
2022;DHT22;1015;49.756;6.994;2022-09-03T11:05:41;23.50;99.90
2022;DHT22;1015;49.756;6.994;2022-09-03T11:08:16;23.70;99.90
2022;DHT22;1015;49.756;6.994;2022-09-03T11:10:49;23.90;99.90
2022;DHT22;1015;49.756;6.994;2022-09-03T11:13:23;24.40;99.90
2022;DHT22;1015;49.756;6.994;2022-09-03T11:15:51;24.90;99.90
2022;DHT22;1015;49.756;6.994;2022-09-03T11:18:22;24.30;99.90
2022;DHT22;1015;49.756;6.994;2022-09-03T11:20:54;24.50;99.90
2022;DHT22;1015;49.756;6.994;2022-09-03T11:23:28;24.90;99.90
2022;DHT22;1015;49.756;6.994;2022-09-03T11:26:01;25.00;99.90
2022;DHT22;1015;49.756;6.994;2022-09-03T11:28:35;25.00;99.90
2022;DHT22;1015;49.756;6.994;2022-09-03T11:31:22;24.80;99.90
2022;DHT22;1015;49.756;6.994;2022-09-03T11:33:53;24.20;99.90
2022;DHT22;1015;49.756;6.994;2022-09-03T11:36:28;25.00;99.90
2022;DHT22;1015;49.756;6.994;2022-09-03T11:38:55;25.30;99.90
2022;DHT22;1015;49.756;6.994;2022-09-03T11:41:24;25.70;99.90
2022;DHT22;1015;49.756;6.994;2022-09-03T11:43:51;24.90;99.90
2022;DHT22;1015;49.756;6.994;2022-09-03T11:46:28;24.40;99.90
2022;DHT22;1015;49.756;6.994;2022-09-03T11:49:07;25.00;99.90
2022;DHT22;1015;49.756;6.994;2022-09-03T11:51:37;26.00;99.90
2022;DHT22;1015;49.756;6.994;2022-09-03T11:54:23;25.80;99.90
2022;DHT22;1015;49.756;6.994;2022-09-03T11:57:01;26.00;99.90
2022;DHT22;1015;49.756;6.994;2022-09-03T11:59:29;26.20;99.90
2022;DHT22;1015;49.756;6.994;2022-09-03T12:01:59;26.40;99.90
2022;DHT22;1015;49.756;6.994;2022-09-03T12:04:33;26.60;99.90
2022;DHT22;1015;49.756;6.994;2022-09-03T12:07:30;26.90;99.90
2022;DHT22;1015;49.756;6.994;2022-09-03T12:10:09;27.00;99.90
2022;DHT22;1015;49.756;6.994;2022-09-03T12:12:44;26.90;99.90
2022;DHT22;1015;49.756;6.994;2022-09-03T12:15:30;26.50;99.90
2022;DHT22;1015;49.756;6.994;2022-09-03T12:18:03;26.40;99.90
2022;DHT22;1015;49.756;6.994;2022-09-03T12:20:47;26.70;99.90
2022;DHT22;1015;49.756;6.994;2022-09-03T12:23:28;26.40;99.90
2022;DHT22;1015;49.756;6.994;2022-09-03T12:26:05;25.10;99.90
2022;DHT22;1015;49.756;6.994;2022-09-03T12:28:35;25.30;99.90
2022;DHT22;1015;49.756;6.994;2022-09-03T12:31:08;25.40;99.90
2022;DHT22;1015;49.756;6.994;2022-09-03T12:33:46;24.30;99.90
2022;DHT22;1015;49.756;6.994;2022-09-03T12:36:14;24.10;99.90
2022;DHT22;1015;49.756;6.994;2022-09-03T12:38:42;23.00;99.90
2022;DHT22;1015;49.756;6.994;2022-09-03T12:41:20;22.20;99.90
2022;DHT22;1015;49.756;6.994;2022-09-03T12:43:51;21.80;99.90
2022;DHT22;1015;49.756;6.994;2022-09-03T12:46:22;20.80;99.90
2022;DHT22;1015;49.756;6.994;2022-09-03T12:48:53;19.60;99.90
2022;DHT22;1015;49.756;6.994;2022-09-03T12:51:21;18.70;99.90
2022;DHT22;1015;49.756;6.994;2022-09-03T12:53:50;19.00;99.90
2022;DHT22;1015;49.756;6.994;2022-09-03T12:56:19;18.60;99.90
2022;DHT22;1015;49.756;6.994;2022-09-03T12:58:50;18.40;99.90
2022;DHT22;1015;49.756;6.994;2022-09-03T13:01:22;17.40;99.90
2022;DHT22;1015;49.756;6.994;2022-09-03T13:03:54;17.00;99.90
2022;DHT22;1015;49.756;6.994;2022-09-03T13:06:24;17.00;99.90
2022;DHT22;1015;49.756;6.994;2022-09-03T13:08:56;17.00;99.90
2022;DHT22;1015;49.756;6.994;2022-09-03T13:11:25;16.40;99.90
2022;DHT22;1015;49.756;6.994;2022-09-03T13:16:47;15.90;99.90
2022;DHT22;1015;49.756;6.994;2022-09-03T13:19:24;15.80;99.90
2022;DHT22;1015;49.756;6.994;2022-09-03T13:22:02;16.00;99.90
2022;DHT22;1015;49.756;6.994;2022-09-03T13:24:48;16.20;99.90
2022;DHT22;1015;49.756;6.994;2022-09-03T13:27:24;16.60;99.90
2022;DHT22;1015;49.756;6.994;2022-09-03T13:30:03;16.70;99.90
2022;DHT22;1015;49.756;6.994;2022-09-03T13:32:40;16.70;99.90
2022;DHT22;1015;49.756;6.994;2022-09-03T13:35:11;17.00;99.90
2022;DHT22;1015;49.756;6.994;2022-09-03T13:37:44;16.90;99.90
2022;DHT22;1015;49.756;6.994;2022-09-03T13:40:22;16.80;99.90
2022;DHT22;1015;49.756;6.994;2022-09-03T13:42:54;17.10;99.90
2022;DHT22;1015;49.756;6.994;2022-09-03T13:45:28;17.60;99.90
2022;DHT22;1015;49.756;6.994;2022-09-03T13:47:59;17.90;99.90
2022;DHT22;1015;49.756;6.994;2022-09-03T13:50:51;18.10;99.90
2022;DHT22;1015;49.756;6.994;2022-09-03T13:53:29;18.50;99.90
2022;DHT22;1015;49.756;6.994;2022-09-03T13:56:05;18.90;99.90
2022;DHT22;1015;49.756;6.994;2022-09-03T13:58:43;19.20;99.90
2022;DHT22;1015;49.756;6.994;2022-09-03T14:01:18;19.50;99.90
2022;DHT22;1015;49.756;6.994;2022-09-03T14:03:50;19.60;99.90
2022;DHT22;1015;49.756;6.994;2022-09-03T14:06:25;19.50;99.90
2022;DHT22;1015;49.756;6.994;2022-09-03T14:09:05;19.40;99.90
2022;DHT22;1015;49.756;6.994;2022-09-03T14:11:45;19.50;99.90
2022;DHT22;1015;49.756;6.994;2022-09-03T14:14:22;19.40;99.90
2022;DHT22;1015;49.756;6.994;2022-09-03T14:16:58;19.40;99.90
2022;DHT22;1015;49.756;6.994;2022-09-03T14:19:34;19.30;99.90
2022;DHT22;1015;49.756;6.994;2022-09-03T14:22:07;19.30;99.90
2022;DHT22;1015;49.756;6.994;2022-09-03T14:24:43;19.20;99.90
2022;DHT22;1015;49.756;6.994;2022-09-03T14:27:21;19.40;99.90
2022;DHT22;1015;49.756;6.994;2022-09-03T14:29:50;19.60;99.90
2022;DHT22;1015;49.756;6.994;2022-09-03T14:32:28;19.60;99.90
2022;DHT22;1015;49.756;6.994;2022-09-03T14:35:08;19.20;99.90
2022;DHT22;1015;49.756;6.994;2022-09-03T14:37:51;19.20;99.90
2022;DHT22;1015;49.756;6.994;2022-09-03T14:40:29;19.30;99.90
2022;DHT22;1015;49.756;6.994;2022-09-03T14:46:06;20.20;99.90
2022;DHT22;1015;49.756;6.994;2022-09-03T14:48:47;20.30;99.90
2022;DHT22;1015;49.756;6.994;2022-09-03T14:51:30;20.20;99.90
2022;DHT22;1015;49.756;6.994;2022-09-03T14:54:18;20.00;99.90
2022;DHT22;1015;49.756;6.994;2022-09-03T14:56:54;20.10;99.90
2022;DHT22;1015;49.756;6.994;2022-09-03T14:59:42;20.30;99.90
2022;DHT22;1015;49.756;6.994;2022-09-03T15:02:44;20.60;99.90
2022;DHT22;1015;49.756;6.994;2022-09-03T15:05:16;20.80;99.90
2022;DHT22;1015;49.756;6.994;2022-09-03T15:07:48;21.00;99.90
2022;DHT22;1015;49.756;6.994;2022-09-03T15:10:24;20.90;99.90
2022;DHT22;1015;49.756;6.994;2022-09-03T15:12:56;20.90;99.90
2022;DHT22;1015;49.756;6.994;2022-09-03T15:15:29;20.30;99.90
2022;DHT22;1015;49.756;6.994;2022-09-03T15:18:10;20.00;99.90
2022;DHT22;1015;49.756;6.994;2022-09-03T15:20:48;19.60;99.90
2022;DHT22;1015;49.756;6.994;2022-09-03T15:23:42;19.60;99.90
2022;DHT22;1015;49.756;6.994;2022-09-03T15:26:27;20.00;99.90
2022;DHT22;1015;49.756;6.994;2022-09-03T15:29:09;20.50;99.90
2022;DHT22;1015;49.756;6.994;2022-09-03T15:31:48;20.50;99.90
2022;DHT22;1015;49.756;6.994;2022-09-03T15:34:40;20.50;99.90
2022;DHT22;1015;49.756;6.994;2022-09-03T15:37:12;20.10;99.90
2022;DHT22;1015;49.756;6.994;2022-09-03T15:39:43;20.30;99.90
2022;DHT22;1015;49.756;6.994;2022-09-03T15:42:17;20.30;99.90
2022;DHT22;1015;49.756;6.994;2022-09-03T15:44:49;20.20;99.90
2022;DHT22;1015;49.756;6.994;2022-09-03T15:47:39;20.30;99.90
2022;DHT22;1015;49.756;6.994;2022-09-03T15:50:15;20.10;99.90
2022;DHT22;1015;49.756;6.994;2022-09-03T15:52:51;20.20;99.90
2022;DHT22;1015;49.756;6.994;2022-09-03T15:55:25;20.30;99.90
2022;DHT22;1015;49.756;6.994;2022-09-03T15:57:58;20.10;99.90
2022;DHT22;1015;49.756;6.994;2022-09-03T16:00:36;20.30;99.90
2022;DHT22;1015;49.756;6.994;2022-09-03T16:03:09;19.90;99.90
2022;DHT22;1015;49.756;6.994;2022-09-03T16:05:45;19.70;99.90
2022;DHT22;1015;49.756;6.994;2022-09-03T16:08:19;19.50;99.90
2022;DHT22;1015;49.756;6.994;2022-09-03T16:10:57;19.60;99.90
2022;DHT22;1015;49.756;6.994;2022-09-03T16:13:38;19.60;99.90
2022;DHT22;1015;49.756;6.994;2022-09-03T16:16:12;19.80;99.90
2022;DHT22;1015;49.756;6.994;2022-09-03T16:18:45;19.80;99.90
2022;DHT22;1015;49.756;6.994;2022-09-03T16:21:23;19.80;99.90
2022;DHT22;1015;49.756;6.994;2022-09-03T16:23:55;19.70;99.90
2022;DHT22;1015;49.756;6.994;2022-09-03T16:26:29;19.90;99.90
2022;DHT22;1015;49.756;6.994;2022-09-03T16:29:00;19.70;99.90
2022;DHT22;1015;49.756;6.994;2022-09-03T16:31:39;19.50;99.90
2022;DHT22;1015;49.756;6.994;2022-09-03T16:34:14;19.50;99.90
2022;DHT22;1015;49.756;6.994;2022-09-03T16:36:50;19.20;99.90
2022;DHT22;1015;49.756;6.994;2022-09-03T16:39:30;19.20;99.90
2022;DHT22;1015;49.756;6.994;2022-09-03T16:42:07;19.30;99.90
2022;DHT22;1015;49.756;6.994;2022-09-03T16:44:44;19.30;99.90
2022;DHT22;1015;49.756;6.994;2022-09-03T16:47:23;18.80;99.90